Time;durP1;ratioP1;P1;durP2;ratioP2;P2;SDS_P1;SDS_P2;PMS_P1;PMS_P2;Temp;Humidity;BMP_temperature;BMP_pressure;BME280_temperature;BME280_humidity;BME280_pressure;Samples;Min_cycle;Max_cycle;Signal;HPM_P1;HPM_P2
2024/01/05 00:00:59;;;;;;;10.30;2.17;;;10.90;84.40;;;;;;5022711;28;20657;-55
2024/01/05 00:03:30;;;;;;;5.88;2.33;;;11.00;84.40;;;;;;5032825;28;20041;-56
2024/01/05 00:06:01;;;;;;;5.60;2.35;;;11.00;84.50;;;;;;5032459;28;20076;-57
2024/01/05 00:08:34;;;;;;;5.20;2.13;;;11.00;84.30;;;;;;5024796;28;20123;-56
2024/01/05 00:11:03;;;;;;;4.70;2.00;;;11.00;83.90;;;;;;5022824;28;20049;-56
2024/01/05 00:13:30;;;;;;;6.57;2.15;;;10.90;83.50;;;;;;5032725;28;20037;-56
2024/01/05 00:16:00;;;;;;;6.88;2.65;;;10.90;83.30;;;;;;5032264;28;20041;-57
2024/01/05 00:18:36;;;;;;;8.77;2.15;;;10.90;83.70;;;;;;5022200;28;20591;-61
2024/01/05 00:21:08;;;;;;;8.52;2.72;;;10.80;82.90;;;;;;5075496;23;20060;-63
2024/01/05 00:23:39;;;;;;;5.07;2.45;;;10.70;82.80;;;;;;5051100;28;20041;-63
2024/01/05 00:26:06;;;;;;;5.75;2.35;;;10.70;82.70;;;;;;5065280;28;20071;-63
2024/01/05 00:28:32;;;;;;;5.28;2.40;;;10.60;82.60;;;;;;5053436;28;20522;-62
2024/01/05 00:30:59;;;;;;;8.50;3.03;;;10.60;82.70;;;;;;5019196;28;20069;-62
2024/01/05 00:33:29;;;;;;;3.75;1.75;;;10.50;82.70;;;;;;5049196;28;20059;-63
2024/01/05 00:35:59;;;;;;;8.23;2.25;;;10.50;83.10;;;;;;5050786;28;20130;-63
2024/01/05 00:38:25;;;;;;;5.57;2.15;;;10.40;83.40;;;;;;5016884;28;20049;-63
2024/01/05 00:40:52;;;;;;;5.78;2.35;;;10.40;83.70;;;;;;5035423;28;20041;-62
2024/01/05 00:43:21;;;;;;;6.00;2.22;;;10.40;84.10;;;;;;5046210;28;20092;-63
2024/01/05 00:45:53;;;;;;;7.13;2.65;;;10.40;84.40;;;;;;5038530;28;20041;-61
2024/01/05 00:48:20;;;;;;;6.38;2.60;;;10.40;84.70;;;;;;5036299;28;20036;-61
2024/01/05 00:50:47;;;;;;;8.85;2.75;;;10.40;84.80;;;;;;5039381;28;20048;-61
2024/01/05 00:53:18;;;;;;;4.32;1.95;;;10.40;85.00;;;;;;5049389;28;20099;-61
2024/01/05 00:55:46;;;;;;;6.22;2.40;;;10.40;85.10;;;;;;5042350;28;20072;-60
2024/01/05 00:58:15;;;;;;;5.15;1.95;;;10.40;85.00;;;;;;5027274;28;20075;-61
2024/01/05 01:00:47;;;;;;;6.75;2.45;;;10.50;84.80;;;;;;5036991;28;20068;-60
2024/01/05 01:03:19;;;;;;;7.78;3.13;;;10.50;84.60;;;;;;5048885;28;20044;-60
2024/01/05 01:05:47;;;;;;;4.47;1.60;;;10.40;84.20;;;;;;5047358;28;20145;-60
2024/01/05 01:08:17;;;;;;;8.65;2.53;;;10.40;84.00;;;;;;5031553;28;20114;-60
2024/01/05 01:10:48;;;;;;;5.40;2.60;;;10.40;83.90;;;;;;5035080;28;20099;-61
2024/01/05 01:13:16;;;;;;;5.72;2.22;;;10.30;83.60;;;;;;5048807;28;20116;-60
2024/01/05 01:15:42;;;;;;;3.38;2.20;;;10.30;83.50;;;;;;5035720;28;20037;-61
2024/01/05 01:18:10;;;;;;;5.07;2.08;;;10.30;83.40;;;;;;5037930;28;20136;-60
2024/01/05 01:20:38;;;;;;;7.35;2.10;;;10.20;83.40;;;;;;5034496;28;20057;-59
2024/01/05 01:23:05;;;;;;;6.68;2.47;;;10.20;83.40;;;;;;5047153;28;20131;-60
2024/01/05 01:25:34;;;;;;;6.53;2.40;;;10.10;83.40;;;;;;5040741;28;20148;-61
2024/01/05 01:28:10;;;;;;;11.20;2.65;;;10.10;83.50;;;;;;5029288;28;20043;-60
2024/01/05 01:30:37;;;;;;;7.07;2.10;;;10.10;83.50;;;;;;5045284;28;20073;-60
2024/01/05 01:33:06;;;;;;;5.13;1.95;;;10.00;83.40;;;;;;5048100;28;20041;-60
2024/01/05 01:35:37;;;;;;;3.97;1.83;;;10.00;83.50;;;;;;5032992;28;20048;-60
2024/01/05 01:38:08;;;;;;;5.25;1.98;;;9.90;83.50;;;;;;5045371;28;20051;-61
2024/01/05 01:40:34;;;;;;;4.03;1.88;;;9.90;83.50;;;;;;5045926;28;20061;-61
2024/01/05 01:43:15;;;;;;;8.00;2.28;;;9.90;83.50;;;;;;5035988;28;20116;-60
2024/01/05 01:45:42;;;;;;;3.38;2.08;;;9.90;83.40;;;;;;5039525;28;20051;-60
2024/01/05 01:48:12;;;;;;;7.28;2.42;;;9.80;83.30;;;;;;5039875;28;20034;-61
2024/01/05 01:50:51;;;;;;;8.10;2.47;;;9.80;83.20;;;;;;5035059;28;20065;-61
2024/01/05 01:53:25;;;;;;;7.90;2.03;;;9.70;83.10;;;;;;5046447;28;20037;-60
2024/01/05 01:55:52;;;;;;;4.53;1.80;;;9.70;83.20;;;;;;5040498;28;20084;-61
2024/01/05 01:58:23;;;;;;;5.07;1.85;;;9.60;83.20;;;;;;5029708;28;20053;-60
2024/01/05 02:00:51;;;;;;;6.70;2.25;;;9.60;83.20;;;;;;5022781;28;20454;-61
2024/01/05 02:03:18;;;;;;;4.70;1.85;;;9.50;83.20;;;;;;5046130;28;20450;-61
2024/01/05 02:05:47;;;;;;;6.70;1.70;;;9.50;83.20;;;;;;5034561;28;20133;-60
2024/01/05 02:08:16;;;;;;;4.15;1.67;;;9.50;83.10;;;;;;5038959;28;20079;-60
2024/01/05 02:10:43;;;;;;;3.80;1.55;;;9.40;82.90;;;;;;5045054;28;20073;-60
2024/01/05 02:13:12;;;;;;;9.63;1.92;;;9.40;82.80;;;;;;5046486;28;20037;-60
2024/01/05 02:15:39;;;;;;;1.73;1.27;;;9.30;82.60;;;;;;5029077;28;20041;-60
2024/01/05 02:18:12;;;;;;;2.22;1.42;;;9.30;82.50;;;;;;5034117;28;20041;-60
2024/01/05 02:20:47;;;;;;;3.55;1.65;;;9.20;82.40;;;;;;5033562;28;20407;-60
2024/01/05 02:23:28;;;;;;;4.90;1.27;;;9.10;82.30;;;;;;5044117;28;20411;-59
2024/01/05 02:26:00;;;;;;;3.80;1.20;;;9.10;82.10;;;;;;5039975;28;20037;-60
2024/01/05 02:28:30;;;;;;;3.17;0.90;;;9.00;82.00;;;;;;5026714;28;20041;-59
2024/01/05 02:31:02;;;;;;;1.95;1.17;;;8.90;82.00;;;;;;5039023;28;20041;-60
2024/01/05 02:33:33;;;;;;;2.70;1.08;;;8.80;81.90;;;;;;5043244;28;20048;-60
2024/01/05 02:36:05;;;;;;;2.95;1.05;;;8.80;81.90;;;;;;5041859;28;20583;-60
2024/01/05 02:38:35;;;;;;;2.53;1.60;;;8.70;81.90;;;;;;5032627;28;20056;-59
2024/01/05 02:41:11;;;;;;;2.55;1.50;;;8.70;82.00;;;;;;5045186;28;20028;-61
2024/01/05 02:43:38;;;;;;;2.72;1.40;;;8.60;82.00;;;;;;5040710;28;20045;-60
2024/01/05 02:46:09;;;;;;;2.58;1.25;;;8.50;82.00;;;;;;5032872;28;20060;-60
2024/01/05 02:48:43;;;;;;;3.95;1.70;;;8.50;82.00;;;;;;5030016;28;20045;-60
2024/01/05 02:51:17;;;;;;;3.00;1.33;;;8.40;82.00;;;;;;5034519;28;20056;-60
2024/01/05 02:53:49;;;;;;;2.15;0.98;;;8.40;82.10;;;;;;5043119;28;20091;-60
2024/01/05 02:56:23;;;;;;;4.20;1.40;;;8.30;82.10;;;;;;5035804;28;20080;-59
2024/01/05 02:58:53;;;;;;;2.10;1.30;;;8.30;82.20;;;;;;5024662;28;20196;-60
2024/01/05 03:01:23;;;;;;;3.60;1.33;;;8.30;82.40;;;;;;5036718;28;20521;-60
2024/01/05 03:03:53;;;;;;;4.65;1.63;;;8.20;82.60;;;;;;5043329;28;20045;-59
2024/01/05 03:06:26;;;;;;;5.63;1.58;;;8.20;83.00;;;;;;5041179;28;20044;-60
2024/01/05 03:08:59;;;;;;;4.38;1.65;;;8.20;83.40;;;;;;5036694;28;20064;-59
2024/01/05 03:11:26;;;;;;;2.47;1.65;;;8.20;83.90;;;;;;5042274;28;20047;-59
2024/01/05 03:13:55;;;;;;;3.80;1.90;;;8.20;84.30;;;;;;5043046;28;20036;-59
2024/01/05 03:16:28;;;;;;;2.97;2.03;;;8.20;84.80;;;;;;5038041;28;20060;-59
2024/01/05 03:18:58;;;;;;;3.97;1.63;;;8.20;85.10;;;;;;5023673;28;20045;-60
2024/01/05 03:21:26;;;;;;;5.65;1.95;;;8.30;85.50;;;;;;5036163;28;20630;-60
2024/01/05 03:23:59;;;;;;;3.90;1.85;;;8.40;85.90;;;;;;5033306;28;20518;-60
2024/01/05 03:26:29;;;;;;;2.38;1.48;;;8.40;86.10;;;;;;5038187;28;20053;-60
2024/01/05 03:29:04;;;;;;;3.92;1.90;;;8.50;86.40;;;;;;5036013;28;20095;-59
2024/01/05 03:31:33;;;;;;;2.38;1.80;;;8.60;86.50;;;;;;5040525;28;20399;-59
2024/01/05 03:34:11;;;;;;;4.70;2.55;;;8.70;86.60;;;;;;5043024;28;20037;-60
2024/01/05 03:36:40;;;;;;;5.30;2.10;;;8.80;86.70;;;;;;5035711;28;20056;-60
2024/01/05 03:39:08;;;;;;;4.35;2.20;;;8.80;86.60;;;;;;5034604;28;20449;-60
2024/01/05 03:41:54;;;;;;;3.97;1.70;;;8.90;86.20;;;;;;5037372;28;20055;-60
2024/01/05 03:44:21;;;;;;;6.35;1.73;;;9.00;85.90;;;;;;5033921;28;20472;-60
2024/01/05 03:46:51;;;;;;;3.53;1.70;;;9.00;85.40;;;;;;5032378;28;20045;-60
2024/01/05 03:49:18;;;;;;;5.85;1.92;;;9.00;85.00;;;;;;5027709;28;20145;-60
2024/01/05 03:51:48;;;;;;;4.65;1.83;;;9.00;84.70;;;;;;5036910;28;20046;-60
2024/01/05 03:54:22;;;;;;;;;;;9.00;84.60;;;;;;5042094;28;20116;-60
2024/01/05 03:56:49;;;;;;;3.60;1.57;;;9.10;84.80;;;;;;5040656;28;19963;-60
2024/01/05 03:59:21;;;;;;;1.77;0.88;;;9.00;84.00;;;;;;5028507;28;20295;-60
2024/01/05 04:01:51;;;;;;;3.67;1.45;;;9.00;84.10;;;;;;5036131;28;20079;-60
2024/01/05 04:04:17;;;;;;;7.55;1.50;;;9.00;84.20;;;;;;5040821;28;20140;-60
2024/01/05 04:06:50;;;;;;;5.18;1.40;;;9.00;84.40;;;;;;5036233;28;20076;-59
2024/01/05 04:09:22;;;;;;;4.93;1.63;;;9.00;84.60;;;;;;5037063;28;20564;-61
2024/01/05 04:11:52;;;;;;;4.70;1.85;;;9.00;84.90;;;;;;5040452;28;20080;-61
2024/01/05 04:14:19;;;;;;;4.55;1.65;;;9.00;85.20;;;;;;5041444;28;20037;-61
2024/01/05 04:16:54;;;;;;;6.78;1.45;;;9.00;85.60;;;;;;5036371;28;20049;-60
2024/01/05 04:19:25;;;;;;;4.18;1.13;;;9.00;85.70;;;;;;5026508;28;20049;-60
2024/01/05 04:21:51;;;;;;;6.55;1.70;;;9.10;85.80;;;;;;5040034;28;20119;-60
2024/01/05 04:24:20;;;;;;;4.97;1.75;;;9.10;85.80;;;;;;5042480;28;20041;-60
2024/01/05 04:26:48;;;;;;;1.88;1.30;;;9.20;85.80;;;;;;5034251;28;20597;-59
2024/01/05 04:29:14;;;;;;;3.92;1.17;;;9.20;85.70;;;;;;5018963;28;20083;-60
2024/01/05 04:31:42;;;;;;;6.88;1.75;;;9.20;85.60;;;;;;5041719;28;20103;-60
2024/01/05 04:34:09;;;;;;;4.53;1.80;;;9.30;85.60;;;;;;5040070;28;20532;-60
2024/01/05 04:36:35;;;;;;;3.83;1.65;;;9.30;85.50;;;;;;5034670;28;20500;-61
2024/01/05 04:39:04;;;;;;;3.17;1.05;;;9.30;85.50;;;;;;5042967;28;20056;-60
2024/01/05 04:41:36;;;;;;;2.10;1.10;;;9.30;85.50;;;;;;5041288;28;20059;-60
2024/01/05 04:44:09;;;;;;;10.73;2.05;;;9.30;85.40;;;;;;5014569;28;20114;-61
2024/01/05 04:46:36;;;;;;;4.22;1.50;;;9.40;85.30;;;;;;5036285;28;20128;-60
2024/01/05 04:49:03;;;;;;;3.90;1.27;;;9.40;85.10;;;;;;5030336;28;20072;-61
2024/01/05 04:51:39;;;;;;;5.55;1.45;;;9.40;85.00;;;;;;5036417;28;20088;-60
2024/01/05 04:54:10;;;;;;;2.55;1.15;;;9.40;84.90;;;;;;5040246;28;20045;-60
2024/01/05 04:56:42;;;;;;;4.60;1.40;;;9.40;84.90;;;;;;5036260;28;20121;-60
2024/01/05 04:59:11;;;;;;;2.90;1.08;;;9.40;84.80;;;;;;5024834;28;20442;-60
2024/01/05 05:01:37;;;;;;;4.13;1.30;;;9.40;84.70;;;;;;5040170;28;20057;-60
2024/01/05 05:04:06;;;;;;;4.65;1.45;;;9.40;84.70;;;;;;5033368;28;20107;-59
2024/01/05 05:06:35;;;;;;;4.85;1.58;;;9.40;84.80;;;;;;5033750;28;20072;-60
2024/01/05 05:09:04;;;;;;;5.60;1.42;;;9.40;84.80;;;;;;5037658;28;20040;-60
2024/01/05 05:11:31;;;;;;;3.72;1.23;;;9.40;84.70;;;;;;5039913;28;20611;-60
2024/01/05 05:13:58;;;;;;;3.60;1.60;;;9.40;84.70;;;;;;5041499;28;20696;-61
2024/01/05 05:16:27;;;;;;;2.67;1.60;;;9.40;84.70;;;;;;5030082;28;20037;-60
2024/01/05 05:18:56;;;;;;;6.50;1.40;;;9.40;84.70;;;;;;5030242;28;20424;-60
2024/01/05 05:21:26;;;;;;;4.78;1.40;;;9.40;84.80;;;;;;5037082;28;20419;-60
2024/01/05 05:23:54;;;;;;;2.35;1.17;;;9.40;84.90;;;;;;5036430;28;20054;-60
2024/01/05 05:26:25;;;;;;;3.22;1.00;;;9.40;84.90;;;;;;5032601;28;20040;-60
2024/01/05 05:28:51;;;;;;;4.05;1.40;;;9.40;84.90;;;;;;5031175;28;20103;-60
2024/01/05 05:31:26;;;;;;;4.15;1.10;;;9.40;84.80;;;;;;5040062;28;20118;-60
2024/01/05 05:33:56;;;;;;;3.10;1.27;;;9.50;84.80;;;;;;5039720;28;20046;-59
2024/01/05 05:36:28;;;;;;;3.40;1.67;;;9.50;84.80;;;;;;5032463;28;20045;-60
2024/01/05 05:38:54;;;;;;;4.63;0.88;;;9.50;84.80;;;;;;5038571;28;20451;-61
2024/01/05 05:41:22;;;;;;;3.20;1.13;;;9.50;84.80;;;;;;5039520;28;20041;-60
2024/01/05 05:43:51;;;;;;;4.78;1.40;;;9.50;84.70;;;;;;5038554;28;20487;-60
2024/01/05 05:46:20;;;;;;;1.60;0.98;;;9.60;84.80;;;;;;5032665;28;20487;-60
2024/01/05 05:48:50;;;;;;;1.98;1.13;;;9.60;84.80;;;;;;5026042;28;20088;-59
2024/01/05 05:51:16;;;;;;;4.40;1.38;;;9.60;84.80;;;;;;5036668;28;20041;-60
2024/01/05 05:53:43;;;;;;;5.78;0.95;;;9.70;84.90;;;;;;5037580;28;20090;-60
2024/01/05 05:56:10;;;;;;;2.28;1.00;;;9.80;84.90;;;;;;5040032;28;20118;-60
2024/01/05 05:58:36;;;;;;;3.47;0.80;;;9.80;84.60;;;;;;5030609;28;20482;-60
2024/01/05 06:01:05;;;;;;;2.25;0.80;;;9.90;84.40;;;;;;5039382;28;20104;-60
2024/01/05 06:03:31;;;;;;;3.83;1.23;;;9.90;84.30;;;;;;5037741;28;20041;-60
2024/01/05 06:05:58;;;;;;;4.45;0.95;;;9.90;84.00;;;;;;5032760;28;20534;-60
2024/01/05 06:08:25;;;;;;;3.08;1.05;;;10.00;83.70;;;;;;5032189;28;20403;-60
2024/01/05 06:10:53;;;;;;;1.88;0.75;;;10.00;83.40;;;;;;5036838;28;20042;-60
2024/01/05 06:13:27;;;;;;;1.25;0.50;;;10.00;83.40;;;;;;5039400;28;20037;-60
2024/01/05 06:15:58;;;;;;;2.75;1.08;;;10.10;83.50;;;;;;5031831;28;20040;-61
2024/01/05 06:18:26;;;;;;;4.65;0.85;;;10.10;83.20;;;;;;5027762;28;20076;-60
2024/01/05 06:20:52;;;;;;;3.70;1.00;;;10.10;83.10;;;;;;5036487;28;20053;-61
2024/01/05 06:23:23;;;;;;;3.10;0.70;;;10.10;83.10;;;;;;5038611;28;20037;-60
2024/01/05 06:25:52;;;;;;;3.65;0.63;;;10.10;82.90;;;;;;5033649;28;20100;-60
2024/01/05 06:28:21;;;;;;;1.33;0.80;;;10.20;82.80;;;;;;5033343;28;20040;-60
2024/01/05 06:30:56;;;;;;;1.70;0.75;;;10.20;82.40;;;;;;5035706;28;20045;-59
2024/01/05 06:33:25;;;;;;;2.80;1.38;;;10.20;82.30;;;;;;5037839;28;20124;-60
2024/01/05 06:35:55;;;;;;;2.28;1.13;;;10.30;82.50;;;;;;5028011;28;20053;-59
2024/01/05 06:38:29;;;;;;;1.55;0.55;;;10.30;82.30;;;;;;5034010;28;20041;-59
2024/01/05 06:41:01;;;;;;;3.58;0.80;;;10.30;81.70;;;;;;5035714;28;20044;-60
2024/01/05 06:43:30;;;;;;;2.58;1.08;;;10.40;81.50;;;;;;5033107;28;20126;-60
2024/01/05 06:45:59;;;;;;;2.72;0.70;;;10.40;81.50;;;;;;5029146;28;20046;-60
2024/01/05 06:48:27;;;;;;;4.78;0.68;;;10.40;81.30;;;;;;5029853;28;20484;-60
2024/01/05 06:50:57;;;;;;;2.70;0.93;;;10.30;81.10;;;;;;5032423;28;20510;-61
2024/01/05 06:53:24;;;;;;;2.45;0.82;;;10.30;80.90;;;;;;5037585;28;20091;-60
2024/01/05 06:55:51;;;;;;;2.05;0.80;;;10.30;80.70;;;;;;5029860;28;20072;-61
2024/01/05 06:58:23;;;;;;;2.20;0.80;;;10.30;80.70;;;;;;5025834;28;20415;-60
2024/01/05 07:00:51;;;;;;;1.85;0.40;;;10.30;80.60;;;;;;5035365;28;20092;-60
2024/01/05 07:03:18;;;;;;;2.58;0.45;;;10.30;80.60;;;;;;5037850;28;20519;-60
2024/01/05 07:05:48;;;;;;;1.67;0.38;;;10.30;80.70;;;;;;5034090;28;20168;-60
2024/01/05 07:08:15;;;;;;;1.40;0.60;;;10.30;80.70;;;;;;5032970;28;20045;-60
2024/01/05 07:10:42;;;;;;;1.52;0.60;;;10.40;80.50;;;;;;5034498;28;20073;-61
2024/01/05 07:13:11;;;;;;;2.60;0.70;;;10.40;80.30;;;;;;5037020;28;20065;-60
2024/01/05 07:15:43;;;;;;;1.67;0.50;;;10.40;79.90;;;;;;5029224;28;20128;-60
2024/01/05 07:18:10;;;;;;;1.77;0.60;;;10.40;79.90;;;;;;5031221;28;20046;-60
2024/01/05 07:20:41;;;;;;;1.73;0.55;;;10.40;79.40;;;;;;5031508;28;20045;-60
2024/01/05 07:23:11;;;;;;;0.38;0.38;;;10.40;78.70;;;;;;5036577;28;20073;-60
2024/01/05 07:25:38;;;;;;;0.93;0.50;;;10.40;78.70;;;;;;5034523;28;20095;-61
2024/01/05 07:28:09;;;;;;;0.43;0.30;;;10.40;78.50;;;;;;5028640;28;20076;-59
2024/01/05 07:30:37;;;;;;;1.42;0.30;;;10.40;78.30;;;;;;5034319;28;20068;-60
2024/01/05 07:33:05;;;;;;;2.33;0.30;;;10.40;78.00;;;;;;5033374;28;20526;-60
2024/01/05 07:35:33;;;;;;;0.57;0.57;;;10.40;77.90;;;;;;5033860;28;20517;-59
2024/01/05 07:38:02;;;;;;;1.35;0.32;;;10.40;77.50;;;;;;5030406;28;20049;-60
2024/01/05 07:40:29;;;;;;;0.73;0.25;;;10.40;77.20;;;;;;5035139;28;20072;-60
2024/01/05 07:42:58;;;;;;;1.23;0.40;;;10.50;77.30;;;;;;5034490;28;20072;-60
2024/01/05 07:45:27;;;;;;;0.73;0.28;;;10.50;76.80;;;;;;5029472;28;20049;-59
2024/01/05 07:47:57;;;;;;;1.85;0.22;;;10.50;76.70;;;;;;5030336;28;20053;-60
2024/01/05 07:50:31;;;;;;;0.47;0.30;;;10.50;76.80;;;;;;5034863;28;20041;-59
2024/01/05 07:53:00;;;;;;;1.48;0.50;;;10.50;76.70;;;;;;5037874;28;20507;-60
2024/01/05 07:55:31;;;;;;;1.17;0.35;;;10.50;76.60;;;;;;5036477;28;20044;-60
2024/01/05 07:58:02;;;;;;;0.22;0.13;;;10.60;76.40;;;;;;5028366;28;20050;-60
2024/01/05 08:00:31;;;;;;;0.08;0.08;;;10.60;76.30;;;;;;5035623;28;20044;-60
2024/01/05 08:03:01;;;;;;;0.52;0.20;;;10.60;76.20;;;;;;5037500;28;20094;-60
2024/01/05 08:05:28;;;;;;;0.20;0.20;;;10.60;75.90;;;;;;5035219;28;20041;-60
2024/01/05 08:07:57;;;;;;;0.35;0.10;;;10.70;75.80;;;;;;5030002;28;20096;-60
2024/01/05 08:10:24;;;;;;;1.95;0.32;;;10.60;75.50;;;;;;5035559;28;20120;-60
2024/01/05 08:12:54;;;;;;;0.28;0.10;;;10.70;75.20;;;;;;5037157;28;20037;-60
2024/01/05 08:15:23;;;;;;;0.40;0.20;;;10.70;74.90;;;;;;5036317;28;20063;-60
2024/01/05 08:17:51;;;;;;;0.68;0.20;;;10.70;74.60;;;;;;5025287;28;20087;-60
2024/01/05 08:20:18;;;;;;;0.52;0.30;;;10.70;74.30;;;;;;5033928;28;20038;-60
2024/01/05 08:22:50;;;;;;;0.22;0.10;;;10.80;74.00;;;;;;5036628;28;20063;-59
2024/01/05 08:25:19;;;;;;;0.75;0.20;;;10.80;73.70;;;;;;5035722;28;20092;-60
2024/01/05 08:27:49;;;;;;;2.67;0.50;;;10.80;73.30;;;;;;5029943;28;20057;-60
2024/01/05 08:30:16;;;;;;;0.10;0.10;;;10.80;73.30;;;;;;5037090;28;20042;-60
2024/01/05 08:32:49;;;;;;;1.05;0.15;;;10.90;73.10;;;;;;5036012;28;20519;-60
2024/01/05 08:35:18;;;;;;;0.30;0.17;;;10.90;73.00;;;;;;5035016;28;20045;-60
2024/01/05 08:37:50;;;;;;;2.35;0.28;;;10.90;72.70;;;;;;5031275;28;20514;-60
2024/01/05 08:40:20;;;;;;;0.75;0.25;;;10.90;72.60;;;;;;5036565;28;20107;-60
2024/01/05 08:42:50;;;;;;;0.73;0.30;;;11.00;72.20;;;;;;5035616;28;20475;-61
2024/01/05 08:45:18;;;;;;;0.30;0.10;;;11.00;72.20;;;;;;5030064;28;20033;-60
2024/01/05 08:47:45;;;;;;;0.70;0.20;;;11.00;72.10;;;;;;5032786;28;20593;-60
2024/01/05 08:50:17;;;;;;;0.63;0.40;;;11.00;72.00;;;;;;5034033;28;20420;-60
2024/01/05 08:52:49;;;;;;;0.73;0.40;;;11.00;71.60;;;;;;5035347;28;20213;-60
2024/01/05 08:55:18;;;;;;;2.63;0.40;;;11.10;71.70;;;;;;5035683;28;20462;-60
2024/01/05 08:57:49;;;;;;;0.70;0.10;;;11.10;71.70;;;;;;5028103;28;20080;-60
2024/01/05 09:00:19;;;;;;;0.63;0.20;;;11.10;71.30;;;;;;5033821;28;20057;-60
2024/01/05 09:02:49;;;;;;;0.63;0.15;;;11.00;70.90;;;;;;5033730;28;20083;-60
2024/01/05 09:05:16;;;;;;;0.57;0.10;;;11.10;71.10;;;;;;5034947;28;20103;-60
2024/01/05 09:07:43;;;;;;;2.85;0.20;;;11.00;70.90;;;;;;5029548;28;20048;-60
2024/01/05 09:10:19;;;;;;;0.68;0.20;;;11.10;70.90;;;;;;5032179;28;20041;-60
2024/01/05 09:12:52;;;;;;;1.00;0.40;;;11.10;70.70;;;;;;5028390;28;20052;-60
2024/01/05 09:15:22;;;;;;;0.43;0.22;;;11.10;70.60;;;;;;5034362;28;20049;-60
2024/01/05 09:17:49;;;;;;;1.17;0.60;;;11.10;70.80;;;;;;5023733;28;20129;-61
2024/01/05 09:20:16;;;;;;;0.73;0.30;;;11.10;70.90;;;;;;5031631;28;20045;-60
2024/01/05 09:22:50;;;;;;;1.00;0.43;;;11.10;70.60;;;;;;5033732;28;20064;-60
2024/01/05 09:25:17;;;;;;;1.13;0.30;;;11.10;70.60;;;;;;5033620;28;20403;-60
2024/01/05 09:27:45;;;;;;;0.52;0.15;;;11.10;70.90;;;;;;5028981;28;20045;-60
2024/01/05 09:30:14;;;;;;;1.08;0.50;;;11.20;70.70;;;;;;5030439;28;20568;-60
2024/01/05 09:32:46;;;;;;;0.60;0.30;;;11.10;70.60;;;;;;5026500;28;20416;-60
2024/01/05 09:35:15;;;;;;;0.50;0.30;;;11.10;70.80;;;;;;5033242;28;20688;-60
2024/01/05 09:37:45;;;;;;;0.80;0.20;;;11.20;71.00;;;;;;5028091;28;20076;-60
2024/01/05 09:40:14;;;;;;;3.20;0.50;;;11.20;70.60;;;;;;5032848;28;20112;-60
2024/01/05 09:42:51;;;;;;;0.28;0.20;;;11.20;70.50;;;;;;5025736;28;20077;-60
2024/01/05 09:45:21;;;;;;;1.17;0.90;;;11.20;70.20;;;;;;5025144;28;20045;-59
2024/01/05 09:48:00;;;;;;;1.65;0.50;;;11.20;70.60;;;;;;5023909;28;20442;-60
2024/01/05 09:50:37;;;;;;;0.55;0.40;;;11.20;70.30;;;;;;5029367;28;20049;-60
2024/01/05 09:53:13;;;;;;;1.38;0.40;;;11.20;70.10;;;;;;5025482;28;20539;-60
2024/01/05 09:55:40;;;;;;;2.13;0.60;;;11.20;70.10;;;;;;5019696;28;20061;-59
2024/01/05 09:58:07;;;;;;;2.65;0.60;;;11.20;69.90;;;;;;5035789;28;20168;-60
2024/01/05 10:00:37;;;;;;;0.90;0.60;;;11.20;69.90;;;;;;5031770;28;20480;-61
2024/01/05 10:03:08;;;;;;;1.17;0.45;;;11.20;69.80;;;;;;5029727;28;20499;-61
2024/01/05 10:05:35;;;;;;;0.93;0.50;;;11.20;69.80;;;;;;5023729;28;20122;-60
2024/01/05 10:08:06;;;;;;;0.65;0.30;;;11.20;70.00;;;;;;5030684;28;20044;-60
2024/01/05 10:10:52;;;;;;;1.90;0.70;;;11.20;69.80;;;;;;5029788;28;20511;-58
2024/01/05 10:13:21;;;;;;;2.60;0.60;;;11.20;69.30;;;;;;5028403;28;20033;-59
2024/01/05 10:15:52;;;;;;;1.33;0.55;;;11.20;69.70;;;;;;5024554;28;20120;-59
2024/01/05 10:18:19;;;;;;;0.82;0.52;;;11.20;69.80;;;;;;5025351;28;20385;-58
2024/01/05 10:20:51;;;;;;;1.20;0.47;;;11.20;70.10;;;;;;5039478;28;20079;-58
2024/01/05 10:23:18;;;;;;;3.53;0.52;;;11.20;70.60;;;;;;5050193;28;20124;-60
2024/01/05 10:25:47;;;;;;;2.15;0.45;;;11.20;69.90;;;;;;5041766;28;20103;-60
2024/01/05 10:28:26;;;;;;;2.00;0.77;;;11.20;69.70;;;;;;5041003;28;20119;-58
2024/01/05 10:30:53;;;;;;;1.58;0.45;;;11.20;69.20;;;;;;5031628;28;20110;-59
2024/01/05 10:33:20;;;;;;;2.30;0.63;;;11.20;69.70;;;;;;5049289;28;20052;-58
2024/01/05 10:35:48;;;;;;;1.75;0.85;;;11.20;69.80;;;;;;5048655;28;20488;-59
2024/01/05 10:38:15;;;;;;;1.50;0.70;;;11.20;69.70;;;;;;5030928;28;20373;-59
2024/01/05 10:40:44;;;;;;;2.97;0.60;;;11.20;69.80;;;;;;5040098;28;20077;-59
2024/01/05 10:43:13;;;;;;;3.03;0.60;;;11.20;69.70;;;;;;5025599;28;20038;-58
2024/01/05 10:45:41;;;;;;;1.85;0.52;;;11.20;69.80;;;;;;5031008;28;20072;-58
2024/01/05 10:48:09;;;;;;;3.17;0.90;;;11.20;69.70;;;;;;5035152;28;20077;-59
2024/01/05 10:50:37;;;;;;;5.10;0.88;;;11.20;69.70;;;;;;5034376;28;20045;-58
2024/01/05 10:53:08;;;;;;;1.58;0.50;;;11.20;69.70;;;;;;5036756;28;20068;-59
2024/01/05 10:55:38;;;;;;;1.40;0.60;;;11.20;69.70;;;;;;5025746;28;20069;-60
2024/01/05 10:58:07;;;;;;;3.03;0.50;;;11.20;69.80;;;;;;5028984;28;20446;-59
2024/01/05 11:00:35;;;;;;;0.95;0.60;;;11.20;69.70;;;;;;5038962;28;20057;-58
2024/01/05 11:03:06;;;;;;;1.25;0.45;;;11.20;70.00;;;;;;5044414;28;20060;-59
2024/01/05 11:05:34;;;;;;;1.35;1.00;;;11.20;69.70;;;;;;5026406;28;20050;-60
2024/01/05 11:08:02;;;;;;;3.40;1.15;;;11.20;69.70;;;;;;5039073;28;20037;-59
2024/01/05 11:10:53;;;;;;;3.03;0.60;;;11.20;69.70;;;;;;5040137;28;20037;-59
2024/01/05 11:13:44;;;;;;;2.67;0.70;;;11.20;69.50;;;;;;5043462;28;20060;-60
2024/01/05 11:16:32;;;;;;;3.47;0.80;;;11.10;69.40;;;;;;5029118;28;20088;-60
2024/01/05 11:19:17;;;;;;;2.60;0.77;;;11.10;69.80;;;;;;5022782;28;20095;-58
2024/01/05 11:21:55;;;;;;;3.65;0.80;;;11.10;69.60;;;;;;5039753;28;20045;-60
2024/01/05 11:24:23;;;;;;;2.50;0.70;;;11.10;70.10;;;;;;5040652;28;20052;-59
2024/01/05 11:26:57;;;;;;;2.10;0.60;;;11.10;69.90;;;;;;5044433;28;20517;-60
2024/01/05 11:29:47;;;;;;;2.42;1.00;;;11.10;69.90;;;;;;5031612;28;20125;-59
2024/01/05 11:32:35;;;;;;;2.05;0.85;;;11.10;68.80;;;;;;5026750;28;20518;-60
2024/01/05 11:35:24;;;;;;;3.42;1.00;;;11.10;69.20;;;;;;5050407;28;20029;-58
2024/01/05 11:37:51;;;;;;;2.40;0.85;;;11.10;68.90;;;;;;5043876;28;20045;-59
2024/01/05 11:40:32;;;;;;;1.83;0.65;;;11.10;69.60;;;;;;5032176;28;20052;-59
2024/01/05 11:43:44;;;;;;;2.92;0.65;;;11.10;69.20;;;;;;5044811;28;20048;-58
2024/01/05 11:46:12;;;;;;;2.03;0.93;;;11.20;69.00;;;;;;5010215;28;20080;-59
2024/01/05 11:48:41;;;;;;;2.13;0.93;;;11.20;69.70;;;;;;5029977;28;20048;-59
2024/01/05 11:51:09;;;;;;;3.25;0.88;;;11.20;69.80;;;;;;5037794;28;20106;-58
2024/01/05 11:53:36;;;;;;;2.67;0.65;;;11.20;69.60;;;;;;5048675;28;20041;-58
2024/01/05 11:56:10;;;;;;;1.70;0.98;;;11.20;69.60;;;;;;5048251;28;20103;-59
2024/01/05 11:58:39;;;;;;;2.40;0.95;;;11.20;69.50;;;;;;5035247;28;20045;-59
2024/01/05 12:01:11;;;;;;;3.85;1.15;;;11.20;69.20;;;;;;5048713;28;20053;-59
2024/01/05 12:03:39;;;;;;;1.25;0.65;;;11.20;69.20;;;;;;5047911;28;20060;-59
2024/01/05 12:06:09;;;;;;;2.90;0.98;;;11.20;69.20;;;;;;5031505;28;20049;-59
2024/01/05 12:08:38;;;;;;;2.38;0.85;;;11.20;69.20;;;;;;5034904;28;20045;-59
2024/01/05 12:11:08;;;;;;;4.65;1.38;;;11.20;69.30;;;;;;5049196;28;20041;-59
2024/01/05 12:13:37;;;;;;;2.28;0.77;;;11.20;69.40;;;;;;5047198;28;20045;-59
2024/01/05 12:16:08;;;;;;;1.38;0.60;;;11.20;69.60;;;;;;5033974;28;20060;-59
2024/01/05 12:18:45;;;;;;;3.60;1.30;;;11.20;69.70;;;;;;5032089;28;20045;-59
2024/01/05 12:21:16;;;;;;;1.70;0.85;;;11.20;69.70;;;;;;5037586;28;20785;-59
2024/01/05 12:23:51;;;;;;;3.33;0.90;;;11.20;70.10;;;;;;5068845;23;20064;-51
2024/01/05 12:26:18;;;;;;;2.42;1.05;;;11.20;70.10;;;;;;5061312;28;20121;-49
2024/01/05 12:28:47;;;;;;;3.10;1.40;;;11.20;70.30;;;;;;5066836;28;20446;-48
2024/01/05 12:31:15;;;;;;;3.40;1.40;;;11.20;70.20;;;;;;5051815;28;20042;-50
2024/01/05 12:33:42;;;;;;;3.50;1.63;;;11.20;70.30;;;;;;5056707;28;20033;-50
2024/01/05 12:36:11;;;;;;;7.32;2.35;;;11.20;70.40;;;;;;5048567;28;20106;-51
2024/01/05 12:38:38;;;;;;;5.47;1.90;;;11.10;70.70;;;;;;5046870;28;20080;-49
2024/01/05 12:41:10;;;;;;;3.25;1.92;;;11.10;70.80;;;;;;5056031;28;20099;-52
2024/01/05 12:43:47;;;;;;;4.18;1.70;;;11.10;70.70;;;;;;5045373;28;20053;-49
2024/01/05 12:46:18;;;;;;;6.22;1.23;;;11.10;70.60;;;;;;5046694;28;20495;-49
2024/01/05 12:48:44;;;;;;;5.15;2.10;;;11.10;70.90;;;;;;5046351;28;20446;-51
2024/01/05 12:51:19;;;;;;;2.33;1.20;;;11.10;70.90;;;;;;5043661;28;20037;-52
2024/01/05 12:53:56;;;;;;;3.10;2.00;;;11.10;70.90;;;;;;5050291;28;20103;-52
2024/01/05 12:56:23;;;;;;;3.88;2.08;;;11.10;71.00;;;;;;5047682;28;20041;-54
2024/01/05 12:58:50;;;;;;;3.47;1.33;;;11.10;71.00;;;;;;5044881;28;20072;-49
2024/01/05 13:01:19;;;;;;;3.38;2.25;;;11.10;71.10;;;;;;5045230;28;20049;-48
2024/01/05 13:04:02;;;;;;;3.55;2.30;;;11.10;71.20;;;;;;5042543;28;20045;-55
2024/01/05 13:06:29;;;;;;;5.03;1.95;;;11.10;71.10;;;;;;5047571;28;20515;-51